createdAt,value
2019-01-25T00:02:45.363Z,48.87
2019-01-25T00:05:33.354Z,50.67
2019-01-25T00:08:13.936Z,49.35
2019-01-25T00:10:54.823Z,52.60
2019-01-25T00:13:35.251Z,49.45
2019-01-25T00:16:15.589Z,49.90
2019-01-25T00:18:56.086Z,47.03
2019-01-25T00:21:36.515Z,50.30
2019-01-25T00:24:17.119Z,46.95
2019-01-25T00:26:57.655Z,47.43
2019-01-25T00:29:38.447Z,56.33
2019-01-25T00:32:19.140Z,43.33
2019-01-25T00:34:59.635Z,47.53
2019-01-25T00:37:40.392Z,46.68
2019-01-25T00:40:21.018Z,47.88
2019-01-25T00:43:01.474Z,50.83
2019-01-25T00:45:42.491Z,52.27
2019-01-25T00:48:23.079Z,51.83
2019-01-25T00:51:03.939Z,46.00
2019-01-25T00:53:44.667Z,45.73
2019-01-25T00:56:25.371Z,44.77
2019-01-25T00:59:05.999Z,48.85
2019-01-25T01:01:46.602Z,47.00
2019-01-25T01:04:27.011Z,47.40
2019-01-25T01:07:06.327Z,44.88
2019-01-25T01:09:54.350Z,47.33
2019-01-25T01:12:42.367Z,43.08
2019-01-25T01:15:30.439Z,46.15
2019-01-25T01:18:30.395Z,43.20
2019-01-25T01:21:08.324Z,42.13
2019-01-25T01:23:56.351Z,45.05
2019-01-25T01:26:44.483Z,42.70
2019-01-25T01:29:32.503Z,47.83
2019-01-25T01:35:29.598Z,44.60
2019-01-25T01:38:17.611Z,44.45
2019-01-25T01:41:05.674Z,47.73
2019-01-25T01:43:53.690Z,46.70
2019-01-25T01:46:41.703Z,47.30
2019-01-25T01:49:29.709Z,48.50
2019-01-25T01:52:17.716Z,50.05
2019-01-25T01:55:05.920Z,46.02
2019-01-25T01:57:54.024Z,44.83
2019-01-25T02:00:42.175Z,48.68
2019-01-25T02:03:30.256Z,46.08
2019-01-25T02:06:18.335Z,47.33
2019-01-25T02:08:58.851Z,52.80
2019-01-25T02:11:39.607Z,45.98
2019-01-25T02:14:20.455Z,45.35
2019-01-25T02:17:01.159Z,50.15
2019-01-25T02:19:41.684Z,50.38
2019-01-25T02:22:22.563Z,50.90
2019-01-25T02:25:03.112Z,51.08
2019-01-25T02:27:43.990Z,52.93
2019-01-25T02:30:24.735Z,56.77
2019-01-25T02:33:05.525Z,55.50
2019-01-25T02:35:46.199Z,51.63
2019-01-25T02:38:26.663Z,48.15
2019-01-25T02:41:08.579Z,53.65
2019-01-25T02:43:48.956Z,54.33
2019-01-25T02:46:29.755Z,56.53
2019-01-25T02:49:10.617Z,56.85
2019-01-25T02:51:51.367Z,52.00
2019-01-25T02:54:32.043Z,47.50
2019-01-25T02:57:13.121Z,55.52
2019-01-25T02:59:53.820Z,57.38
2019-01-25T03:02:34.501Z,52.17
2019-01-25T03:05:15.245Z,58.55
2019-01-25T03:07:55.815Z,49.25
2019-01-25T03:10:36.587Z,55.03
2019-01-25T03:13:17.110Z,50.20
2019-01-25T03:15:57.726Z,54.85
2019-01-25T03:18:38.370Z,56.08
2019-01-25T03:21:19.771Z,50.60
2019-01-25T03:24:00.478Z,45.90
2019-01-25T03:26:40.912Z,51.92
2019-01-25T03:29:21.408Z,60.52
2019-01-25T03:32:01.973Z,59.90
2019-01-25T03:34:42.431Z,61.00
2019-01-25T03:37:23.114Z,55.23
2019-01-25T03:40:03.795Z,54.35
2019-01-25T03:42:44.331Z,54.15
2019-01-25T03:45:24.727Z,57.08
2019-01-25T03:48:04.033Z,55.38
2019-01-25T03:50:52.122Z,51.33
2019-01-25T03:53:40.189Z,55.17
2019-01-25T03:56:28.195Z,57.40
2019-01-25T03:59:16.195Z,61.48
2019-01-25T04:02:23.426Z,61.35
2019-01-25T04:05:11.895Z,58.02
2019-01-25T04:07:52.936Z,56.02
2019-01-25T04:10:33.736Z,61.33
2019-01-25T04:13:14.541Z,67.03
2019-01-25T04:15:55.284Z,63.80
2019-01-25T04:18:36.039Z,64.95
2019-01-25T04:21:16.601Z,43.20
2019-01-25T04:23:57.262Z,38.63
2019-01-25T04:26:38.046Z,40.40
2019-01-25T04:29:18.851Z,46.63
2019-01-25T04:31:59.539Z,52.67
2019-01-25T04:34:40.242Z,58.90
2019-01-25T04:37:20.892Z,61.80
2019-01-25T04:40:01.711Z,68.57
2019-01-25T04:42:42.622Z,72.53
2019-01-25T04:45:23.327Z,54.30
2019-01-25T04:48:04.055Z,62.03
2019-01-25T04:50:44.847Z,59.75
2019-01-25T04:53:25.583Z,52.73
2019-01-25T04:56:06.243Z,48.68
2019-01-25T04:58:46.692Z,37.80
2019-01-25T05:01:27.230Z,48.33
2019-01-25T05:04:07.896Z,56.30
2019-01-25T05:06:48.311Z,54.80
2019-01-25T05:09:28.772Z,53.68
2019-01-25T05:12:09.295Z,49.33
2019-01-25T05:14:49.788Z,49.45
2019-01-25T05:17:30.458Z,45.70
2019-01-25T05:20:11.052Z,41.92
2019-01-25T05:22:52.383Z,34.90
2019-01-25T05:25:33.164Z,41.48
2019-01-25T05:28:13.811Z,44.18
2019-01-25T05:30:54.624Z,45.10
2019-01-25T05:33:35.308Z,49.08
2019-01-25T05:36:15.969Z,52.13
2019-01-25T05:38:56.504Z,53.05
2019-01-25T05:41:37.244Z,55.60
2019-01-25T05:44:17.939Z,58.50
2019-01-25T05:46:58.732Z,59.80
2019-01-25T05:49:39.658Z,64.35
2019-01-25T05:52:20.488Z,46.08
2019-01-25T05:55:01.130Z,57.45
2019-01-25T05:57:41.780Z,49.95
2019-01-25T06:00:27.654Z,58.17
2019-01-25T06:03:08.552Z,53.68
2019-01-25T06:05:49.040Z,42.60
2019-01-25T06:08:34.055Z,44.70
2019-01-25T06:11:14.839Z,44.58
2019-01-25T06:13:55.563Z,45.58
2019-01-25T06:16:36.380Z,52.85
2019-01-25T06:19:16.979Z,48.98
2019-01-25T06:21:57.669Z,54.85
2019-01-25T06:24:38.363Z,52.25
2019-01-25T06:27:18.670Z,47.10
2019-01-25T06:29:59.208Z,52.67
2019-01-25T06:32:39.895Z,47.70
2019-01-25T06:35:20.645Z,46.80
2019-01-25T06:38:01.255Z,41.25
2019-01-25T06:40:41.880Z,41.50
2019-01-25T06:43:23.164Z,52.13
2019-01-25T06:45:52.115Z,52.55
2019-01-25T06:48:40.123Z,58.08
2019-01-25T06:51:28.114Z,51.68
2019-01-25T06:54:16.139Z,48.63
2019-01-25T07:00:01.815Z,48.10
2019-01-25T07:02:49.832Z,54.10
2019-01-25T07:05:37.830Z,57.83
2019-01-25T07:08:19.427Z,63.28
2019-01-25T07:11:00.511Z,65.35
2019-01-25T07:13:41.179Z,65.55
2019-01-25T07:16:22.072Z,62.05
2019-01-25T07:19:03.095Z,56.75
2019-01-25T07:21:43.624Z,55.00
2019-01-25T07:24:24.376Z,49.63
2019-01-25T07:27:05.182Z,56.95
2019-01-25T07:29:46.040Z,71.10
2019-01-25T07:32:27.475Z,66.47
2019-01-25T07:35:07.848Z,66.72
2019-01-25T07:37:48.756Z,62.85
2019-01-25T07:40:29.677Z,59.23
2019-01-25T07:43:10.565Z,54.03
2019-01-25T07:45:51.504Z,53.23
2019-01-25T07:48:31.833Z,58.63
2019-01-25T07:51:12.510Z,54.90
2019-01-25T07:53:54.475Z,62.55
2019-01-25T07:56:35.212Z,57.50
2019-01-25T07:59:15.697Z,48.48
2019-01-25T08:01:56.597Z,56.13
2019-01-25T08:04:37.337Z,60.28
2019-01-25T08:07:18.105Z,59.35
2019-01-25T08:09:59.124Z,60.58
2019-01-25T08:12:40.005Z,50.70
2019-01-25T08:15:20.827Z,58.35
2019-01-25T08:18:01.320Z,53.63
2019-01-25T08:20:43.092Z,56.80
2019-01-25T08:23:23.712Z,54.30
2019-01-25T08:26:04.388Z,56.23
2019-01-25T08:28:44.976Z,58.95
2019-01-25T08:31:25.755Z,54.13
2019-01-25T08:34:06.322Z,53.15
2019-01-25T08:36:47.657Z,59.20
2019-01-25T08:39:28.103Z,67.53
2019-01-25T08:42:15.245Z,57.73
2019-01-25T08:44:50.993Z,67.95
2019-01-25T08:47:31.466Z,60.60
2019-01-25T08:50:11.948Z,62.50
2019-01-25T08:52:52.675Z,52.15
2019-01-25T08:55:33.230Z,65.97
2019-01-25T08:58:13.812Z,60.15
2019-01-25T09:00:55.188Z,62.60
2019-01-25T09:03:35.664Z,53.90
2019-01-25T09:06:16.366Z,50.30
2019-01-25T09:08:57.138Z,58.63
2019-01-25T09:11:37.706Z,50.20
2019-01-25T09:14:18.515Z,52.33
2019-01-25T09:16:59.351Z,59.08
2019-01-25T09:19:39.963Z,57.00
2019-01-25T09:22:20.911Z,55.67
2019-01-25T09:25:01.511Z,54.67
2019-01-25T09:27:42.527Z,60.03
2019-01-25T09:30:23.235Z,59.67
2019-01-25T09:33:05.006Z,54.58
2019-01-25T09:35:45.631Z,56.58
2019-01-25T09:38:26.391Z,51.88
2019-01-25T09:41:07.195Z,54.00
2019-01-25T09:43:47.673Z,56.73
2019-01-25T09:46:30.078Z,50.08
2019-01-25T09:49:11.244Z,59.27
2019-01-25T09:51:51.800Z,54.55
2019-01-25T09:54:32.532Z,57.13
2019-01-25T09:57:13.187Z,50.00
2019-01-25T09:59:53.979Z,59.90
2019-01-25T10:02:35.605Z,50.45
2019-01-25T10:05:16.083Z,49.93
2019-01-25T10:07:56.636Z,51.65
2019-01-25T10:10:37.280Z,55.95
2019-01-25T10:13:18.164Z,56.13
2019-01-25T10:15:58.924Z,53.87
2019-01-25T10:18:39.703Z,60.48
2019-01-25T10:21:20.407Z,58.17
2019-01-25T10:24:01.220Z,47.33
2019-01-25T10:26:41.878Z,51.88
2019-01-25T10:29:22.561Z,51.10
2019-01-25T10:32:03.705Z,60.28
2019-01-25T10:34:44.414Z,53.70
2019-01-25T10:37:24.971Z,58.95
2019-01-25T10:40:05.677Z,60.83
2019-01-25T10:42:52.994Z,62.50
2019-01-25T10:45:29.009Z,51.90
2019-01-25T10:48:09.698Z,47.17
2019-01-25T10:50:50.408Z,60.52
2019-01-25T10:53:31.410Z,58.28
2019-01-25T10:56:12.242Z,57.33
2019-01-25T10:58:52.818Z,52.17
2019-01-25T11:01:33.535Z,53.48
2019-01-25T11:04:14.076Z,57.15
2019-01-25T11:06:54.935Z,57.30
2019-01-25T11:09:38.047Z,44.15
2019-01-25T11:12:18.422Z,67.20
2019-01-25T11:15:01.248Z,53.95
2019-01-25T11:17:42.091Z,51.65
2019-01-25T11:20:22.841Z,55.12
2019-01-25T11:23:03.229Z,65.22
2019-01-25T11:25:43.706Z,50.70
2019-01-25T11:28:24.703Z,54.83
2019-01-25T11:31:05.106Z,47.60
2019-01-25T11:33:45.508Z,67.45
2019-01-25T11:36:26.107Z,52.50
2019-01-25T11:39:06.926Z,62.43
2019-01-25T11:41:47.544Z,48.05
2019-01-25T11:44:28.380Z,45.83
2019-01-25T11:47:09.173Z,46.37
2019-01-25T11:49:49.880Z,57.75
2019-01-25T11:52:30.551Z,50.75
2019-01-25T11:55:12.693Z,53.55
2019-01-25T11:57:53.776Z,54.20
2019-01-25T12:00:35.563Z,53.85
2019-01-25T12:03:16.336Z,60.75
2019-01-25T12:05:56.975Z,49.35
2019-01-25T12:08:37.408Z,46.85
2019-01-25T12:11:18.099Z,45.03
2019-01-25T12:13:58.678Z,40.83
2019-01-25T12:16:39.456Z,51.88
2019-01-25T12:19:20.111Z,45.25
2019-01-25T12:22:00.748Z,40.60
2019-01-25T12:24:41.575Z,42.45
2019-01-25T12:27:22.423Z,44.08
2019-01-25T12:30:03.305Z,38.25
2019-01-25T12:32:44.149Z,39.00
2019-01-25T12:35:24.899Z,33.85
2019-01-25T12:38:05.651Z,44.35
2019-01-25T12:40:46.332Z,34.63
2019-01-25T12:43:26.875Z,33.70
2019-01-25T12:46:07.732Z,34.00
2019-01-25T12:48:48.279Z,37.15
2019-01-25T12:51:28.687Z,33.50
2019-01-25T12:54:09.416Z,33.13
2019-01-25T12:56:50.008Z,39.38
2019-01-25T12:59:30.679Z,31.23
2019-01-25T13:02:11.524Z,36.15
2019-01-25T13:04:52.152Z,31.42
2019-01-25T13:07:32.738Z,31.42
2019-01-25T13:10:13.541Z,35.75
2019-01-25T13:12:53.892Z,29.32
2019-01-25T13:15:34.688Z,36.25
2019-01-25T13:18:15.415Z,32.95
2019-01-25T13:20:56.048Z,34.00
2019-01-25T13:23:36.389Z,33.02
2019-01-25T13:26:17.265Z,27.17
2019-01-25T13:28:58.001Z,31.30
2019-01-25T13:31:38.453Z,38.15
2019-01-25T13:34:19.193Z,32.00
2019-01-25T13:36:59.630Z,38.35
2019-01-25T13:39:40.175Z,31.80
2019-01-25T13:42:20.841Z,36.08
2019-01-25T13:45:01.425Z,31.65
2019-01-25T13:47:42.342Z,36.08
2019-01-25T13:50:22.940Z,31.82
2019-01-25T13:53:04.940Z,38.92
2019-01-25T13:55:45.973Z,23.10
2019-01-25T13:58:26.630Z,36.33
2019-01-25T14:01:07.221Z,33.38
2019-01-25T14:03:47.897Z,29.82
2019-01-25T14:06:28.696Z,29.40
2019-01-25T14:09:09.044Z,30.48
2019-01-25T14:11:49.605Z,35.75
2019-01-25T14:14:30.139Z,34.60
2019-01-25T14:17:10.623Z,34.78
2019-01-25T14:19:51.115Z,40.17
2019-01-25T14:22:31.871Z,33.13
2019-01-25T14:25:12.489Z,31.33
2019-01-25T14:27:53.108Z,30.12
2019-01-25T14:30:33.812Z,38.50
2019-01-25T14:33:15.110Z,34.83
2019-01-25T14:35:55.656Z,37.10
2019-01-25T14:38:36.146Z,34.75
2019-01-25T14:41:16.898Z,34.80
2019-01-25T14:43:57.736Z,32.78
2019-01-25T14:46:38.806Z,34.58
2019-01-25T14:49:19.379Z,56.53
2019-01-25T14:52:00.630Z,36.03
2019-01-25T14:54:41.547Z,32.28
2019-01-25T14:57:22.184Z,32.40
2019-01-25T15:00:02.709Z,35.05
2019-01-25T15:02:43.451Z,34.83
2019-01-25T15:05:24.072Z,39.03
2019-01-25T15:08:04.559Z,31.90
2019-01-25T15:10:45.118Z,33.00
2019-01-25T15:13:25.488Z,34.53
2019-01-25T15:16:07.318Z,37.65
2019-01-25T15:18:48.498Z,34.78
2019-01-25T15:21:29.055Z,33.30
2019-01-25T15:24:08.141Z,38.08
2019-01-25T15:26:56.147Z,32.10
2019-01-25T15:29:44.145Z,31.40
2019-01-25T15:32:32.215Z,34.70
2019-01-25T15:35:20.671Z,30.12
2019-01-25T15:38:08.752Z,33.10
2019-01-25T15:40:56.813Z,34.10
2019-01-25T15:43:44.830Z,30.82
2019-01-25T15:46:32.855Z,35.30
2019-01-25T15:49:20.923Z,37.90
2019-01-25T15:52:09.007Z,33.95
2019-01-25T15:54:57.009Z,32.00
2019-01-25T15:57:45.016Z,29.80
2019-01-25T16:00:35.192Z,35.00
2019-01-25T16:03:23.268Z,32.15
2019-01-25T16:06:11.351Z,33.73
2019-01-25T16:08:54.142Z,35.08
2019-01-25T16:11:55.435Z,35.15
2019-01-25T16:14:58.769Z,34.13
2019-01-25T16:18:00.396Z,37.95
2019-01-25T16:20:49.882Z,34.83
2019-01-25T16:24:01.260Z,34.60
2019-01-25T16:27:11.113Z,33.48
2019-01-25T16:30:04.174Z,32.85
2019-01-25T16:32:53.001Z,30.88
2019-01-25T16:36:00.388Z,37.65
2019-01-25T16:38:48.410Z,35.55
2019-01-25T16:41:48.206Z,30.23
2019-01-25T16:44:26.250Z,34.85
2019-01-25T16:47:14.280Z,32.17
2019-01-25T16:50:02.293Z,28.57
2019-01-25T16:52:50.374Z,34.50
2019-01-25T16:55:31.087Z,31.62
2019-01-25T16:58:09.082Z,30.62
2019-01-25T17:00:57.129Z,34.33
2019-01-25T17:03:45.140Z,34.48
2019-01-25T17:06:33.145Z,27.30
2019-01-25T17:09:13.983Z,31.75
2019-01-25T17:11:54.759Z,27.25
2019-01-25T17:14:35.621Z,32.42
2019-01-25T17:17:16.292Z,28.67
2019-01-25T17:19:56.718Z,30.95
2019-01-25T17:22:37.683Z,32.88
2019-01-25T17:25:18.509Z,33.38
2019-01-25T17:27:59.039Z,34.03
2019-01-25T17:30:39.738Z,31.17
2019-01-25T17:33:20.176Z,32.13
2019-01-25T17:36:00.908Z,30.40
2019-01-25T17:38:41.696Z,34.88
2019-01-25T17:41:22.324Z,31.70
2019-01-25T17:44:03.051Z,27.77
2019-01-25T17:46:43.936Z,34.53
2019-01-25T17:49:24.707Z,28.90
2019-01-25T17:52:05.500Z,28.95
2019-01-25T17:54:46.354Z,28.42
2019-01-25T17:57:27.207Z,28.12
2019-01-25T18:00:07.877Z,28.92
2019-01-25T18:02:49.889Z,28.77
2019-01-25T18:05:31.027Z,23.77
2019-01-25T18:08:12.538Z,27.00
2019-01-25T18:10:53.833Z,29.02
2019-01-25T18:13:35.130Z,30.17
2019-01-25T18:16:15.511Z,23.65
2019-01-25T18:18:56.067Z,28.83
2019-01-25T18:21:36.675Z,27.42
2019-01-25T18:24:17.286Z,28.77
2019-01-25T18:26:57.863Z,34.45
2019-01-25T18:29:38.247Z,29.90
2019-01-25T18:32:19.102Z,34.45
2019-01-25T18:34:59.487Z,34.67
2019-01-25T18:37:39.995Z,27.90
2019-01-25T18:40:20.376Z,33.95
2019-01-25T18:43:01.643Z,32.90
2019-01-25T18:45:42.229Z,29.27
2019-01-25T18:48:23.160Z,35.17
2019-01-25T18:51:03.892Z,32.63
2019-01-25T18:53:45.559Z,35.03
2019-01-25T18:56:26.256Z,34.65
2019-01-25T18:59:06.987Z,29.77
2019-01-25T19:01:47.604Z,33.00
2019-01-25T19:04:28.768Z,42.03
2019-01-25T19:07:09.557Z,30.08
2019-01-25T19:09:49.916Z,38.98
2019-01-25T19:12:30.635Z,34.70
2019-01-25T19:15:11.004Z,36.05
2019-01-25T19:17:51.685Z,40.17
2019-01-25T19:20:32.392Z,35.17
2019-01-25T19:23:13.199Z,34.92
2019-01-25T19:25:53.984Z,39.48
2019-01-25T19:28:34.786Z,43.13
2019-01-25T19:31:15.472Z,45.28
2019-01-25T19:33:56.493Z,45.05
2019-01-25T19:36:37.194Z,46.40
2019-01-25T19:39:17.797Z,43.15
2019-01-25T19:41:58.447Z,42.27
2019-01-25T19:44:39.491Z,47.27
2019-01-25T19:47:20.060Z,50.60
2019-01-25T19:50:00.993Z,49.03
2019-01-25T19:52:41.648Z,47.33
2019-01-25T19:55:22.248Z,53.75
2019-01-25T19:58:02.964Z,53.05
2019-01-25T20:00:43.673Z,56.05
2019-01-25T20:03:24.020Z,55.67
2019-01-25T20:06:04.828Z,62.55
2019-01-25T20:08:45.508Z,52.38
2019-01-25T20:11:26.310Z,64.00
2019-01-25T20:14:07.012Z,64.82
2019-01-25T20:16:47.867Z,61.68
2019-01-25T20:19:28.611Z,70.57
2019-01-25T20:22:09.243Z,59.53
2019-01-25T20:24:49.880Z,63.23
2019-01-25T20:27:30.255Z,54.60
2019-01-25T20:30:10.975Z,60.55
2019-01-25T20:32:51.559Z,62.73
2019-01-25T20:35:33.726Z,69.15
2019-01-25T20:38:14.803Z,56.53
2019-01-25T20:40:55.501Z,59.45
2019-01-25T20:43:36.219Z,56.73
2019-01-25T20:46:16.801Z,71.55
2019-01-25T20:48:57.385Z,68.20
2019-01-25T20:51:38.010Z,60.28
2019-01-25T20:54:18.964Z,52.65
2019-01-25T20:57:00.716Z,51.15
2019-01-25T20:59:41.575Z,53.95
2019-01-25T21:02:23.531Z,50.48
2019-01-25T21:05:04.879Z,52.00
2019-01-25T21:07:47.251Z,54.53
2019-01-25T21:10:28.377Z,55.60
2019-01-25T21:13:09.679Z,65.75
2019-01-25T21:15:50.766Z,56.18
2019-01-25T21:18:31.610Z,52.65
2019-01-25T21:21:12.351Z,55.15
2019-01-25T21:23:53.319Z,52.05
2019-01-25T21:29:23.197Z,59.53
2019-01-25T21:32:04.542Z,53.05
2019-01-25T21:34:45.001Z,52.73
2019-01-25T21:37:25.760Z,69.20
2019-01-25T21:40:08.569Z,53.68
2019-01-25T21:45:43.168Z,51.23
2019-01-25T21:48:26.031Z,52.45
2019-01-25T21:51:07.476Z,63.60
2019-01-25T21:53:48.222Z,54.23
2019-01-25T21:56:28.875Z,57.70
2019-01-25T21:59:09.496Z,52.90
2019-01-25T22:01:50.199Z,59.53
2019-01-25T22:04:33.032Z,55.15
2019-01-25T22:07:13.707Z,52.00
2019-01-25T22:09:54.300Z,56.20
2019-01-25T22:12:35.075Z,56.70
2019-01-25T22:15:16.367Z,58.38
2019-01-25T22:17:57.206Z,43.50
2019-01-25T22:20:37.732Z,47.45
2019-01-25T22:23:18.377Z,56.00
2019-01-25T22:25:59.071Z,48.70
2019-01-25T22:28:39.627Z,50.15
2019-01-25T22:31:20.480Z,45.40
2019-01-25T22:34:01.436Z,49.63
2019-01-25T22:36:42.177Z,45.63
2019-01-25T22:39:22.854Z,42.13
2019-01-25T22:42:03.509Z,39.40
2019-01-25T22:44:44.262Z,43.10
2019-01-25T22:47:25.021Z,42.40
2019-01-25T22:50:05.563Z,34.30
2019-01-25T22:52:46.195Z,36.83
2019-01-25T22:55:27.018Z,39.53
2019-01-25T22:58:07.355Z,35.80
2019-01-25T23:00:52.013Z,40.48
2019-01-25T23:03:32.863Z,35.28
2019-01-25T23:06:13.623Z,37.58
2019-01-25T23:08:54.323Z,37.10
2019-01-25T23:11:35.305Z,39.00
2019-01-25T23:14:16.296Z,32.90
2019-01-25T23:16:56.776Z,32.70
2019-01-25T23:19:37.330Z,42.70
2019-01-25T23:22:17.976Z,43.78
2019-01-25T23:24:58.642Z,48.38
2019-01-25T23:27:39.367Z,44.70
2019-01-25T23:30:20.152Z,42.45
2019-01-25T23:33:00.674Z,40.50
2019-01-25T23:35:41.303Z,38.35
2019-01-25T23:38:22.055Z,37.73
2019-01-25T23:41:02.833Z,36.23
2019-01-25T23:43:43.635Z,30.57
2019-01-25T23:46:23.991Z,31.30
2019-01-25T23:49:04.683Z,28.57
2019-01-25T23:51:45.275Z,26.87
2019-01-25T23:54:26.178Z,34.55
2019-01-25T23:57:07.362Z,26.20
2019-01-25T23:59:48.648Z,24.95
